Time;durP1;ratioP1;P1;durP2;ratioP2;P2;SDS_P1;SDS_P2;PMS_P1;PMS_P2;Temp;Humidity;BMP_temperature;BMP_pressure;BME280_temperature;BME280_humidity;BME280_pressure;Samples;Min_cycle;Max_cycle;Signal;HPM_P1;HPM_P2
2024/01/30 00:00:08;;;;;;;9.07;7.87;;;;;;;3.44;nan;100904.31;5026671;28;20191;-87
2024/01/30 00:02:34;;;;;;;16.38;8.18;;;;;;;3.39;nan;100896.56;5025079;28;20445;-86
2024/01/30 00:04:59;;;;;;;8.27;7.07;;;;;;;3.36;nan;100901.81;5022957;28;20194;-87
2024/01/30 00:07:25;;;;;;;9.90;6.30;;;;;;;3.32;nan;100895.81;5023777;28;20206;-87
2024/01/30 00:09:50;;;;;;;7.73;5.90;;;;;;;3.24;nan;100889.84;5008519;28;20228;-87
2024/01/30 00:12:16;;;;;;;8.00;6.97;;;;;;;3.22;nan;100899.41;5024466;28;20186;-86
2024/01/30 00:14:43;;;;;;;11.40;7.10;;;;;;;3.17;nan;100898.59;5025181;28;20286;-88
2024/01/30 00:17:09;;;;;;;10.35;7.05;;;;;;;3.13;nan;100899.50;5025052;28;20191;-88
2024/01/30 00:19:35;;;;;;;14.52;7.65;;;;;;;3.11;nan;100896.09;5027707;28;20205;-88
2024/01/30 00:22:00;;;;;;;11.77;6.20;;;;;;;3.10;nan;100896.94;5027083;28;20194;-87
2024/01/30 00:24:26;;;;;;;8.70;7.10;;;;;;;3.06;nan;100893.53;5026285;28;20266;-87
2024/01/30 00:26:52;;;;;;;15.10;7.50;;;;;;;3.06;nan;100897.88;5027320;28;20585;-87
2024/01/30 00:29:19;;;;;;;13.93;6.50;;;;;;;3.04;nan;100895.28;5033765;28;20699;-87
2024/01/30 00:31:45;;;;;;;12.48;6.57;;;;;;;2.97;nan;100897.97;5015282;28;20230;-89
2024/01/30 00:34:11;;;;;;;8.38;6.40;;;;;;;2.89;nan;100908.47;5034319;28;20214;-87
2024/01/30 00:36:37;;;;;;;6.53;5.90;;;;;;;2.83;nan;100908.50;5034033;28;20201;-88
2024/01/30 00:39:06;;;;;;;9.88;7.50;;;;;;;2.83;nan;100906.75;5029371;28;20445;-88
2024/01/30 00:41:31;;;;;;;10.77;5.72;;;;;;;2.81;nan;100903.34;5033760;28;20301;-87
2024/01/30 00:43:57;;;;;;;12.30;6.63;;;;;;;2.77;nan;100909.44;5030062;28;20258;-86
2024/01/30 00:46:22;;;;;;;6.70;5.10;;;;;;;2.79;nan;100904.25;5029241;28;20194;-88
2024/01/30 00:48:48;;;;;;;10.33;5.90;;;;;;;2.78;nan;100905.09;5027002;28;20230;-89
2024/01/30 00:51:13;;;;;;;13.53;5.33;;;;;;;2.77;nan;100901.66;5023668;28;20233;-86
2024/01/30 00:53:38;;;;;;;10.43;6.00;;;;;;;2.76;nan;100905.13;5023100;28;20202;-89
2024/01/30 00:56:04;;;;;;;10.90;7.03;;;;;;;2.75;nan;100899.94;5023147;28;20198;-87
2024/01/30 00:58:33;;;;;;;6.80;5.40;;;;;;;2.73;nan;100897.38;5025066;28;20210;-85
2024/01/30 01:00:58;;;;;;;9.48;5.35;;;;;;;2.70;nan;100907.78;5024376;28;20297;-87
2024/01/30 01:03:24;;;;;;;8.57;6.07;;;;;;;2.68;nan;100906.09;5024572;28;20294;-87
2024/01/30 01:05:49;;;;;;;13.90;6.93;;;;;;;2.65;nan;100900.06;5025576;28;20217;-86
2024/01/30 01:08:15;;;;;;;11.27;8.57;;;;;;;2.66;nan;100903.50;5024143;28;20198;-87
2024/01/30 01:10:40;;;;;;;18.20;7.13;;;;;;;2.66;nan;100906.94;5024440;28;20210;-86
2024/01/30 01:13:05;;;;;;;10.30;6.53;;;;;;;2.67;nan;100905.22;5023318;28;20291;-87
2024/01/30 01:15:31;;;;;;;9.80;7.60;;;;;;;2.61;nan;100903.53;5026353;28;20182;-86
2024/01/30 01:17:56;;;;;;;10.17;7.30;;;;;;;2.60;nan;100906.16;5025140;28;20190;-85
2024/01/30 01:20:22;;;;;;;12.37;7.87;;;;;;;2.57;nan;100911.38;5017592;28;20206;-86
2024/01/30 01:22:47;;;;;;;9.50;6.83;;;;;;;2.57;nan;100908.78;5018673;28;20191;-85
2024/01/30 01:25:13;;;;;;;9.63;5.83;;;;;;;2.57;nan;100903.59;5025358;28;20304;-84
2024/01/30 01:27:40;;;;;;;8.50;5.60;;;;;;;2.55;nan;100911.38;5023841;28;20210;-85
2024/01/30 01:30:09;;;;;;;6.63;5.55;;;;;;;2.57;nan;100907.06;5020638;28;20226;-86
2024/01/30 01:32:34;;;;;;;10.68;6.07;;;;;;;2.60;nan;100907.03;5018779;28;20222;-85
2024/01/30 01:35:00;;;;;;;9.33;5.37;;;;;;;2.63;nan;100908.72;4997593;28;20236;-85
2024/01/30 01:37:26;;;;;;;10.20;5.37;;;;;;;2.65;nan;100901.78;5019679;28;20191;-85
2024/01/30 01:39:52;;;;;;;7.78;4.03;;;;;;;2.64;nan;100897.47;5021183;28;20202;-85
2024/01/30 01:42:18;;;;;;;6.03;4.63;;;;;;;2.63;nan;100898.34;5018927;28;20203;-87
2024/01/30 01:44:43;;;;;;;12.47;5.27;;;;;;;2.64;nan;100902.66;5029083;28;20452;-87
2024/01/30 01:47:08;;;;;;;7.97;6.10;;;;;;;2.64;nan;100887.94;5027126;28;20194;-87
2024/01/30 01:49:34;;;;;;;9.37;6.20;;;;;;;2.58;nan;100892.34;5008526;28;20222;-87
2024/01/30 01:52:00;;;;;;;6.03;5.37;;;;;;;2.53;nan;100886.34;5024823;28;20195;-86
2024/01/30 01:54:28;;;;;;;7.78;6.03;;;;;;;2.55;nan;100889.78;5025626;28;20186;-87
2024/01/30 01:56:54;;;;;;;8.73;6.80;;;;;;;2.56;nan;100891.50;5024386;28;20563;-87
2024/01/30 01:59:20;;;;;;;6.60;5.70;;;;;;;2.59;nan;100891.47;5008441;28;20272;-86
2024/01/30 02:01:48;;;;;;;7.68;4.78;;;;;;;2.62;nan;100891.47;5026505;28;20536;-86
2024/01/30 02:04:14;;;;;;;7.70;5.30;;;;;;;2.64;nan;100887.09;5018748;28;20202;-84
2024/01/30 02:06:40;;;;;;;10.20;5.47;;;;;;;2.65;nan;100891.41;5019579;28;20190;-84
2024/01/30 02:09:05;;;;;;;5.83;4.93;;;;;;;2.65;nan;100891.41;5021147;28;20293;-85
2024/01/30 02:11:31;;;;;;;8.40;5.57;;;;;;;2.64;nan;100895.72;4997213;28;20551;-85
2024/01/30 02:14:01;;;;;;;6.47;4.88;;;;;;;2.62;nan;100881.09;5017087;28;20194;-84
2024/01/30 02:16:27;;;;;;;6.90;6.22;;;;;;;2.61;nan;100881.94;5016643;28;20201;-84
2024/01/30 02:18:53;;;;;;;7.88;5.10;;;;;;;2.57;nan;100882.84;5018503;28;20278;-85
2024/01/30 02:21:25;;;;;;;9.53;5.30;;;;;;;2.56;nan;100881.97;5020342;28;20290;-85
2024/01/30 02:23:52;;;;;;;10.07;5.40;;;;;;;2.55;nan;100874.22;5019896;28;20262;-85
2024/01/30 02:26:17;;;;;;;8.30;5.20;;;;;;;2.55;nan;100885.44;5017702;28;20997;-84
2024/01/30 02:28:43;;;;;;;11.53;5.70;;;;;;;2.57;nan;100890.63;5020169;28;20254;-84
2024/01/30 02:31:08;;;;;;;5.57;4.87;;;;;;;2.59;nan;100886.28;5017694;28;20212;-84
2024/01/30 02:33:34;;;;;;;9.07;5.60;;;;;;;2.60;nan;100886.28;5014053;28;20198;-84
2024/01/30 02:35:59;;;;;;;7.43;5.70;;;;;;;2.61;nan;100882.78;5014319;28;20833;-84
2024/01/30 02:38:26;;;;;;;9.87;6.20;;;;;;;2.64;nan;100884.50;5015418;28;20195;-84
2024/01/30 02:40:52;;;;;;;9.88;7.13;;;;;;;2.61;nan;100875.00;4997989;28;20202;-84
2024/01/30 02:43:17;;;;;;;8.50;5.90;;;;;;;2.58;nan;100879.38;4998998;28;20178;-84
2024/01/30 02:45:43;;;;;;;8.40;6.70;;;;;;;2.58;nan;100874.19;5016621;28;20187;-87
2024/01/30 02:48:08;;;;;;;9.50;6.23;;;;;;;2.57;nan;100888.03;5018349;28;20617;-88
2024/01/30 02:50:34;;;;;;;6.03;5.37;;;;;;;2.59;nan;100881.09;5018780;28;20210;-87
2024/01/30 02:53:00;;;;;;;8.55;5.65;;;;;;;2.57;nan;100872.47;5018260;28;20277;-88
2024/01/30 02:55:26;;;;;;;6.43;5.20;;;;;;;2.53;nan;100875.97;5019196;28;20203;-87
2024/01/30 02:57:51;;;;;;;8.73;5.40;;;;;;;2.49;nan;100879.47;5003192;28;20202;-86
2024/01/30 03:00:17;;;;;;;7.63;6.60;;;;;;;2.39;nan;100882.16;5025461;28;20268;-85
2024/01/30 03:02:42;;;;;;;12.90;6.50;;;;;;;2.31;nan;100876.19;5004612;28;20280;-86
2024/01/30 03:05:08;;;;;;;10.20;5.47;;;;;;;2.26;nan;100875.34;5024463;28;20191;-86
2024/01/30 03:07:33;;;;;;;6.20;5.27;;;;;;;2.24;nan;100879.69;5023696;28;20202;-86
2024/01/30 03:09:59;;;;;;;9.80;5.30;;;;;;;2.23;nan;100888.34;5022941;28;20233;-86
2024/01/30 03:12:25;;;;;;;8.07;5.00;;;;;;;2.23;nan;100885.75;5023675;28;20186;-85
2024/01/30 03:14:50;;;;;;;5.80;4.40;;;;;;;2.21;nan;100884.91;5024482;28;20198;-86
2024/01/30 03:17:16;;;;;;;8.30;4.53;;;;;;;2.23;nan;100883.16;5020791;28;20599;-86
2024/01/30 03:19:41;;;;;;;8.40;5.17;;;;;;;2.22;nan;100886.66;5022126;28;20190;-86
2024/01/30 03:22:07;;;;;;;5.63;4.80;;;;;;;2.22;nan;100881.47;5021104;28;20198;-86
2024/01/30 03:24:32;;;;;;;8.60;5.30;;;;;;;2.23;nan;100883.16;5021369;28;20202;-86
2024/01/30 03:26:57;;;;;;;11.00;5.00;;;;;;;2.20;nan;100878.88;5022342;28;20201;-86
2024/01/30 03:29:23;;;;;;;6.20;4.20;;;;;;;2.18;nan;100885.78;5020177;28;20257;-86
2024/01/30 03:31:49;;;;;;;5.30;4.80;;;;;;;2.19;nan;100889.28;5020651;28;20213;-85
2024/01/30 03:34:14;;;;;;;5.63;4.70;;;;;;;2.20;nan;100885.78;5026992;28;20190;-86
2024/01/30 03:36:40;;;;;;;9.40;5.10;;;;;;;2.23;nan;100885.75;5026952;28;20186;-86
2024/01/30 03:39:06;;;;;;;8.80;6.57;;;;;;;2.29;nan;100893.47;5026051;28;20850;-86
2024/01/30 03:41:31;;;;;;;10.38;7.15;;;;;;;2.26;nan;100888.31;5029249;28;20405;-87
2024/01/30 03:43:57;;;;;;;9.80;5.97;;;;;;;2.24;nan;100891.78;5029856;28;20920;-86
2024/01/30 03:46:22;;;;;;;6.57;5.30;;;;;;;2.17;nan;100883.22;5028999;28;20269;-87
2024/01/30 03:48:48;;;;;;;6.97;4.83;;;;;;;2.13;nan;100894.47;5027088;28;20206;-87
2024/01/30 03:51:14;;;;;;;7.97;5.30;;;;;;;2.07;nan;100897.13;5028633;28;20203;-86
2024/01/30 03:53:41;;;;;;;8.07;5.38;;;;;;;1.96;nan;100894.63;5027033;28;20198;-85
2024/01/30 03:56:07;;;;;;;7.38;5.68;;;;;;;1.88;nan;100891.22;5028661;28;20270;-85
2024/01/30 03:58:33;;;;;;;7.57;4.47;;;;;;;1.84;nan;100894.72;5030310;28;20210;-85
2024/01/30 04:00:58;;;;;;;9.93;6.00;;;;;;;1.78;nan;100890.44;5031548;28;20796;-85
2024/01/30 04:03:24;;;;;;;9.03;5.60;;;;;;;1.74;nan;100904.28;5029757;28;20453;-85
2024/01/30 04:05:51;;;;;;;7.77;5.10;;;;;;;1.74;nan;100897.38;5012115;28;20187;-86
2024/01/30 04:08:16;;;;;;;8.05;6.22;;;;;;;1.78;nan;100890.44;5031655;28;20491;-86
2024/01/30 04:10:42;;;;;;;7.47;4.97;;;;;;;1.81;nan;100887.84;5030235;28;20210;-86
2024/01/30 04:13:07;;;;;;;8.90;5.77;;;;;;;1.83;nan;100904.22;5034466;28;20200;-85
2024/01/30 04:15:33;;;;;;;6.00;5.40;;;;;;;1.86;nan;100906.78;5032759;28;20187;-86
2024/01/30 04:18:01;;;;;;;8.60;5.17;;;;;;;1.87;nan;100910.25;5031721;28;20203;-86
2024/01/30 04:20:27;;;;;;;9.50;5.43;;;;;;;1.88;nan;100919.72;5015754;28;20313;-87
2024/01/30 04:22:52;;;;;;;6.97;4.90;;;;;;;1.86;nan;100917.13;5034223;28;20199;-86
2024/01/30 04:25:18;;;;;;;8.00;5.00;;;;;;;1.85;nan;100918.03;5035811;28;20293;-86
2024/01/30 04:27:43;;;;;;;9.87;6.17;;;;;;;1.86;nan;100911.97;5028937;28;20319;-86
2024/01/30 04:30:09;;;;;;;6.70;5.20;;;;;;;1.87;nan;100916.28;5025720;28;20729;-86
2024/01/30 04:32:35;;;;;;;6.80;5.47;;;;;;;1.89;nan;100919.72;5026872;28;20214;-87
2024/01/30 04:35:01;;;;;;;5.80;5.13;;;;;;;1.90;nan;100912.81;5026900;28;20198;-85
2024/01/30 04:37:26;;;;;;;6.43;5.00;;;;;;;1.91;nan;100917.13;5028677;28;20210;-86
2024/01/30 04:39:54;;;;;;;6.60;5.40;;;;;;;1.93;nan;100920.56;5030852;28;20435;-87
2024/01/30 04:42:20;;;;;;;9.10;5.20;;;;;;;1.95;nan;100922.28;5032593;28;20194;-87
2024/01/30 04:44:45;;;;;;;6.20;4.43;;;;;;;1.96;nan;100929.16;5031381;28;20216;-88
2024/01/30 04:47:11;;;;;;;6.00;5.40;;;;;;;1.98;nan;100924.84;5033055;28;20400;-87
2024/01/30 04:49:40;;;;;;;7.38;5.35;;;;;;;1.99;nan;100926.53;5027160;28;20214;-89
2024/01/30 04:52:06;;;;;;;5.95;4.70;;;;;;;2.01;nan;100923.09;5027703;28;20206;-88
2024/01/30 04:54:32;;;;;;;9.57;5.68;;;;;;;2.01;nan;100915.34;5028274;28;20198;-88
2024/01/30 04:56:58;;;;;;;7.75;5.75;;;;;;;2.02;nan;100927.41;5027951;28;20202;-88
2024/01/30 04:59:23;;;;;;;9.20;6.83;;;;;;;2.04;nan;100933.44;5028223;28;20594;-88
2024/01/30 05:01:49;;;;;;;11.97;4.93;;;;;;;2.05;nan;100932.56;5032662;28;20191;-86
2024/01/30 05:04:14;;;;;;;6.93;5.07;;;;;;;2.04;nan;100933.44;5010012;28;20548;-86
2024/01/30 05:06:40;;;;;;;6.87;5.63;;;;;;;2.05;nan;100924.78;5029902;28;20198;-87
2024/01/30 05:09:05;;;;;;;6.47;5.27;;;;;;;2.06;nan;100934.31;5030954;28;20213;-87
2024/01/30 05:11:31;;;;;;;8.57;7.00;;;;;;;2.07;nan;100930.81;5030709;28;20214;-87
2024/01/30 05:13:56;;;;;;;9.00;6.50;;;;;;;2.08;nan;100924.75;5031966;28;20226;-86
2024/01/30 05:16:22;;;;;;;10.13;5.93;;;;;;;2.11;nan;100930.81;5012550;28;20202;-87
2024/01/30 05:18:48;;;;;;;9.23;5.53;;;;;;;2.12;nan;100936.84;5029830;28;20639;-87
2024/01/30 05:21:14;;;;;;;13.20;7.50;;;;;;;2.12;nan;100936.84;5029824;28;21020;-88
2024/01/30 05:23:41;;;;;;;7.47;6.63;;;;;;;2.14;nan;100929.91;5025321;28;20256;-89
2024/01/30 05:26:07;;;;;;;8.07;6.00;;;;;;;2.15;nan;100931.63;5022756;28;20455;-88
2024/01/30 05:28:33;;;;;;;9.27;5.95;;;;;;;2.16;nan;100930.75;5023570;28;20222;-87
2024/01/30 05:31:01;;;;;;;7.43;6.57;;;;;;;2.20;nan;100937.63;5029880;28;20709;-87
2024/01/30 05:33:26;;;;;;;8.00;6.50;;;;;;;2.20;nan;100927.25;5034322;28;20695;-87
2024/01/30 05:54:29;;;;;;;10.38;6.20;;;;;;;2.29;nan;100937.53;4985826;28;20202;-89
2024/01/30 05:56:54;;;;;;;7.43;6.40;;;;;;;2.33;nan;100931.47;4966710;28;20207;-88
2024/01/30 05:59:20;;;;;;;7.57;5.70;;;;;;;2.36;nan;100940.97;5023662;28;20222;-89
2024/01/30 06:01:47;;;;;;;9.90;7.80;;;;;;;2.38;nan;100928.84;5024594;28;20198;-87
2024/01/30 06:04:13;;;;;;;10.80;7.57;;;;;;;2.37;nan;100943.53;5029300;28;20201;-86
2024/01/30 06:06:38;;;;;;;10.77;8.33;;;;;;;2.36;nan;100941.81;5029060;28;20698;-87
2024/01/30 06:09:04;;;;;;;10.93;8.30;;;;;;;2.34;nan;100938.38;5009326;28;20436;-88
2024/01/30 06:11:29;;;;;;;11.77;7.80;;;;;;;2.33;nan;100933.22;5029416;28;20480;-87
2024/01/30 06:13:55;;;;;;;8.83;6.33;;;;;;;2.33;nan;100939.25;5030409;28;20352;-88
2024/01/30 06:16:22;;;;;;;10.10;6.30;;;;;;;2.31;nan;100942.72;5032101;28;20255;-87
2024/01/30 06:18:48;;;;;;;11.23;6.65;;;;;;;2.28;nan;100938.44;5025754;28;20238;-87
2024/01/30 06:21:14;;;;;;;11.63;8.57;;;;;;;2.25;nan;100948.84;5028562;28;20199;-88
2024/01/30 06:23:47;;;;;;;16.83;10.70;;;;;;;2.24;nan;100946.25;5030514;28;20252;-88
2024/01/30 06:26:12;;;;;;;12.23;8.27;;;;;;;2.25;nan;100943.66;5032082;28;20206;-88
2024/01/30 06:28:37;;;;;;;12.37;8.50;;;;;;;2.27;nan;100946.22;5031242;28;20233;-88
2024/01/30 06:31:03;;;;;;;9.30;6.87;;;;;;;2.28;nan;100943.63;5029465;28;20207;-88
2024/01/30 06:33:28;;;;;;;10.10;7.13;;;;;;;2.29;nan;100942.72;5030923;28;20503;-88
2024/01/30 06:35:54;;;;;;;15.50;9.43;;;;;;;2.31;nan;100945.31;5024663;28;20214;-88
2024/01/30 06:38:19;;;;;;;9.77;8.50;;;;;;;2.30;nan;100939.28;5024227;28;20237;-89
2024/01/30 06:40:45;;;;;;;11.03;8.87;;;;;;;2.31;nan;100942.72;5005429;28;20226;-88
2024/01/30 06:43:11;;;;;;;13.73;8.43;;;;;;;2.29;nan;100940.13;5026340;28;20570;-87
2024/01/30 06:45:40;;;;;;;9.02;6.30;;;;;;;2.25;nan;100948.84;5026817;28;20518;-89
2024/01/30 06:48:06;;;;;;;6.57;5.82;;;;;;;2.24;nan;100947.09;5004865;28;20195;-88
2024/01/30 06:50:31;;;;;;;9.27;5.85;;;;;;;2.25;nan;100948.84;5024228;28;20807;-88
2024/01/30 06:52:57;;;;;;;9.13;7.40;;;;;;;2.26;nan;100942.75;5024848;28;20194;-88
2024/01/30 06:55:22;;;;;;;8.17;6.43;;;;;;;2.29;nan;100949.66;5019819;28;20194;-88
2024/01/30 06:57:50;;;;;;;7.77;6.30;;;;;;;2.31;nan;100946.19;5023719;28;20202;-87
2024/01/30 07:00:19;;;;;;;8.85;6.10;;;;;;;2.33;nan;100947.03;5021582;28;20623;-88
2024/01/30 07:02:45;;;;;;;10.88;7.47;;;;;;;2.32;nan;100950.50;5021971;28;20209;-88
2024/01/30 07:05:10;;;;;;;7.60;6.10;;;;;;;2.36;nan;100951.34;5001065;28;20195;-89
2024/01/30 07:07:35;;;;;;;7.40;6.33;;;;;;;2.40;nan;100953.00;5019455;28;20461;-88
2024/01/30 07:10:01;;;;;;;10.50;7.53;;;;;;;2.42;nan;100946.94;5019086;28;20238;-88
2024/01/30 07:12:31;;;;;;;9.63;8.63;;;;;;;2.49;nan;100946.91;5018517;28;20578;-88
2024/01/30 07:14:56;;;;;;;10.90;8.38;;;;;;;2.53;nan;100948.59;5001526;28;20195;-87
2024/01/30 07:17:21;;;;;;;13.03;8.77;;;;;;;2.61;nan;100949.38;5018331;28;20201;-88
2024/01/30 07:19:47;;;;;;;10.20;9.03;;;;;;;2.70;nan;100949.31;5018564;28;20352;-88
2024/01/30 07:22:12;;;;;;;9.60;7.07;;;;;;;2.75;nan;100954.44;5020222;28;20535;-88
2024/01/30 07:24:44;;;;;;;13.40;5.60;;;;;;;2.76;nan;100959.63;5021144;28;20495;-88
2024/01/30 07:27:10;;;;;;;7.65;6.32;;;;;;;2.76;nan;100959.63;5019649;28;20229;-88
2024/01/30 07:29:35;;;;;;;9.30;6.70;;;;;;;2.72;nan;100955.31;5019499;28;20249;-88
2024/01/30 07:32:00;;;;;;;8.20;6.50;;;;;;;2.72;nan;100957.91;5018410;28;20208;-88
2024/01/30 07:34:27;;;;;;;7.33;5.67;;;;;;;2.74;nan;100948.38;5001213;28;20241;-88
2024/01/30 07:36:55;;;;;;;10.18;6.45;;;;;;;2.79;nan;100948.34;5022560;28;20202;-87
2024/01/30 07:39:20;;;;;;;13.00;9.50;;;;;;;2.88;nan;100961.22;5017229;28;20947;-87
2024/01/30 07:41:48;;;;;;;9.60;8.13;;;;;;;3.03;nan;100958.47;5019589;28;20468;-87
2024/01/30 07:44:14;;;;;;;6.03;4.45;;;;;;;3.39;nan;100958.91;5022642;28;20209;-87
2024/01/30 07:46:39;;;;;;;5.33;4.40;;;;;;;3.96;nan;100963.34;5018357;28;20596;-87
2024/01/30 07:49:04;;;;;;;4.90;3.63;;;;;;;4.59;nan;100952.78;5017767;28;20205;-88
2024/01/30 07:51:31;;;;;;;6.33;3.17;;;;;;;5.24;nan;100959.41;5016694;28;20241;-87
2024/01/30 07:53:57;;;;;;;3.42;2.30;;;;;;;5.80;nan;100951.25;4996936;28;20210;-87
2024/01/30 07:56:23;;;;;;;5.13;3.20;;;;;;;6.28;nan;100959.72;5015456;28;20205;-88
2024/01/30 07:58:48;;;;;;;3.77;3.07;;;;;;;6.67;nan;100951.81;4995822;28;21084;-88
2024/01/30 08:01:15;;;;;;;4.17;3.27;;;;;;;6.98;nan;100951.81;5015533;28;20216;-88
2024/01/30 08:03:41;;;;;;;4.13;3.72;;;;;;;7.23;nan;100952.00;5014583;28;20207;-88
2024/01/30 08:06:07;;;;;;;5.63;3.30;;;;;;;7.43;nan;100958.44;5015156;28;20559;-88
2024/01/30 08:08:33;;;;;;;9.27;5.47;;;;;;;7.53;nan;100958.13;5014502;28;20437;-88
2024/01/30 08:10:58;;;;;;;5.17;4.57;;;;;;;7.52;nan;100953.78;5016053;28;20731;-87
2024/01/30 08:13:23;;;;;;;4.20;3.90;;;;;;;7.45;nan;100954.00;5014755;28;20198;-88
2024/01/30 08:15:49;;;;;;;3.63;3.00;;;;;;;7.37;nan;100961.19;5015133;28;20415;-88
2024/01/30 08:18:14;;;;;;;4.27;3.87;;;;;;;7.28;nan;100951.88;5014569;28;20663;-88
2024/01/30 08:20:40;;;;;;;6.80;4.27;;;;;;;7.24;nan;100948.50;5018742;28;20190;-88
2024/01/30 08:23:07;;;;;;;5.33;3.70;;;;;;;7.23;nan;100951.16;5020293;28;20534;-88
2024/01/30 08:25:33;;;;;;;7.07;4.80;;;;;;;7.22;nan;100950.28;5020249;28;20198;-88
2024/01/30 08:27:59;;;;;;;11.20;6.50;;;;;;;7.28;nan;100950.13;5019218;28;20387;-88
2024/01/30 08:30:25;;;;;;;6.57;4.70;;;;;;;7.48;nan;100948.66;5018955;28;20228;-88
2024/01/30 08:32:50;;;;;;;6.40;3.77;;;;;;;7.69;nan;100950.66;5019500;28;20447;-88
2024/01/30 08:35:16;;;;;;;8.53;5.07;;;;;;;7.97;nan;100944.59;5019304;28;20617;-88
2024/01/30 08:37:42;;;;;;;3.92;2.72;;;;;;;8.29;nan;100940.06;5018709;28;20784;-89
2024/01/30 08:40:11;;;;;;;7.37;5.00;;;;;;;8.54;nan;100935.78;5020626;28;20293;-88
2024/01/30 08:42:36;;;;;;;7.50;4.45;;;;;;;8.73;nan;100929.91;5021367;28;20174;-88
2024/01/30 08:45:03;;;;;;;10.43;4.43;;;;;;;8.88;nan;100933.72;5019071;28;20626;-88
2024/01/30 08:47:28;;;;;;;7.00;5.25;;;;;;;9.01;nan;100930.63;5018809;28;20773;-87
2024/01/30 08:49:53;;;;;;;6.60;5.20;;;;;;;9.15;nan;100929.25;5018644;28;20214;-88
2024/01/30 08:52:19;;;;;;;9.03;5.20;;;;;;;9.27;nan;100937.53;5018812;28;20202;-88
2024/01/30 08:54:47;;;;;;;7.80;4.43;;;;;;;9.40;nan;100937.09;5019417;28;20746;-88
2024/01/30 08:57:12;;;;;;;5.85;3.90;;;;;;;9.50;nan;100944.56;5025500;28;20662;-88
2024/01/30 08:59:37;;;;;;;5.40;3.37;;;;;;;9.62;nan;100939.75;5027517;28;20800;-88
2024/01/30 09:02:04;;;;;;;3.93;2.63;;;;;;;9.71;nan;100942.00;5022245;28;20258;-88
2024/01/30 09:04:29;;;;;;;6.57;4.15;;;;;;;9.81;nan;100943.38;5033857;28;20186;-87
2024/01/30 09:06:55;;;;;;;3.77;3.17;;;;;;;9.89;nan;100925.56;5041907;28;20197;-88
2024/01/30 09:09:20;;;;;;;3.20;2.30;;;;;;;9.97;nan;100935.75;5039346;28;20222;-88
2024/01/30 09:11:45;;;;;;;7.53;2.93;;;;;;;10.03;nan;100927.63;5040435;28;20270;-87
2024/01/30 09:14:11;;;;;;;6.90;3.43;;;;;;;10.10;nan;100936.97;5040423;28;20229;-86
2024/01/30 09:16:37;;;;;;;4.37;2.67;;;;;;;10.20;nan;100940.91;5039531;28;20195;-87
2024/01/30 09:19:02;;;;;;;4.40;2.80;;;;;;;10.29;nan;100933.59;5038324;28;20477;-87
2024/01/30 09:21:28;;;;;;;3.20;2.83;;;;;;;10.37;nan;100935.03;5038899;28;20198;-86
2024/01/30 09:24:06;;;;;;;5.00;2.93;;;;;;;10.47;nan;100942.50;5040727;28;20232;-87
2024/01/30 09:26:32;;;;;;;3.33;2.28;;;;;;;10.58;nan;100940.28;5038657;28;20262;-87
2024/01/30 09:28:57;;;;;;;5.50;3.33;;;;;;;10.67;nan;100953.03;5037298;28;20230;-86
2024/01/30 09:31:23;;;;;;;4.73;3.50;;;;;;;10.76;nan;100960.53;5027574;28;20206;-87
2024/01/30 09:33:51;;;;;;;6.83;3.50;;;;;;;10.87;nan;100964.47;5024543;28;20240;-88
2024/01/30 09:36:18;;;;;;;3.30;3.00;;;;;;;10.93;nan;100972.09;5024718;28;20285;-87
2024/01/30 09:38:43;;;;;;;5.18;3.47;;;;;;;10.99;nan;100972.69;5019844;28;20429;-88
2024/01/30 09:41:13;;;;;;;6.20;4.27;;;;;;;11.03;nan;100982.13;5019235;28;20194;-87
2024/01/30 09:43:41;;;;;;;20.38;6.13;;;;;;;11.03;nan;100976.88;5019363;28;20391;-87
2024/01/30 09:46:13;;;;;;;6.53;3.20;;;;;;;11.04;nan;100985.63;5020335;28;20237;-87
2024/01/30 09:48:41;;;;;;;6.50;4.20;;;;;;;11.05;nan;100972.41;5019267;28;20245;-87
2024/01/30 09:51:07;;;;;;;6.20;4.07;;;;;;;11.10;nan;100981.84;5019732;28;20214;-86
2024/01/30 09:53:33;;;;;;;8.98;4.95;;;;;;;11.16;nan;100982.47;5019321;28;20214;-87
2024/01/30 09:56:00;;;;;;;9.03;5.60;;;;;;;11.24;nan;100987.38;5016874;28;20207;-88
2024/01/30 09:58:26;;;;;;;7.47;5.97;;;;;;;11.31;nan;100986.16;5021134;28;20825;-87
2024/01/30 10:00:53;;;;;;;9.43;4.73;;;;;;;11.40;nan;100984.94;5019215;28;20195;-88
2024/01/30 10:03:19;;;;;;;5.55;4.28;;;;;;;11.45;nan;100981.16;5019039;28;20709;-88
2024/01/30 10:05:52;;;;;;;6.53;4.28;;;;;;;11.51;nan;100978.25;5019692;28;20290;-87
2024/01/30 10:08:21;;;;;;;5.53;3.63;;;;;;;11.57;nan;100973.63;5016405;28;20376;-87
2024/01/30 10:10:48;;;;;;;5.80;3.55;;;;;;;11.59;nan;100977.91;5017114;28;20276;-87
2024/01/30 10:13:13;;;;;;;4.65;4.15;;;;;;;11.66;nan;100973.19;5017350;28;20234;-87
2024/01/30 10:15:40;;;;;;;4.47;2.40;;;;;;;11.73;nan;100970.22;4998710;28;20272;-87
2024/01/30 10:18:06;;;;;;;3.28;2.15;;;;;;;11.81;nan;100979.53;4996574;28;20203;-87
2024/01/30 10:20:32;;;;;;;3.13;2.47;;;;;;;11.89;nan;100964.25;5017111;28;20221;-88
2024/01/30 10:22:58;;;;;;;5.43;3.67;;;;;;;11.98;nan;100970.88;5017597;28;20203;-87
2024/01/30 10:25:27;;;;;;;2.75;2.40;;;;;;;12.01;nan;100974.19;5016257;28;20213;-87
2024/01/30 10:27:55;;;;;;;9.03;4.87;;;;;;;12.05;nan;100967.88;5015729;28;20207;-89
2024/01/30 10:30:23;;;;;;;9.82;5.13;;;;;;;12.11;nan;100966.72;5015654;28;20309;-87
2024/01/30 10:32:49;;;;;;;6.55;3.83;;;;;;;12.20;nan;100965.41;5016994;28;20202;-87
2024/01/30 10:35:15;;;;;;;5.20;2.93;;;;;;;12.30;nan;100964.03;5016595;28;20194;-87
2024/01/30 10:37:43;;;;;;;4.05;3.30;;;;;;;12.30;nan;100964.88;5016803;28;20463;-87
2024/01/30 10:40:13;;;;;;;2.42;2.20;;;;;;;12.34;nan;100952.41;5017166;28;20210;-86
2024/01/30 10:42:42;;;;;;;3.22;2.50;;;;;;;12.40;nan;100957.41;5000598;28;20667;-88
2024/01/30 10:45:12;;;;;;;3.03;2.30;;;;;;;12.45;nan;100960.66;5017836;28;20309;-88
2024/01/30 10:47:40;;;;;;;5.47;2.78;;;;;;;12.49;nan;100958.72;5016834;28;20198;-88
2024/01/30 10:50:08;;;;;;;8.05;2.85;;;;;;;12.55;nan;100956.59;5018042;28;20203;-88
2024/01/30 10:52:44;;;;;;;3.70;3.40;;;;;;;12.63;nan;100956.22;5018442;28;20213;-87
2024/01/30 10:55:15;;;;;;;2.90;2.30;;;;;;;12.72;nan;100950.50;5018285;28;20191;-88
2024/01/30 10:57:41;;;;;;;3.50;2.55;;;;;;;12.87;nan;100948.84;5015211;28;20203;-89
2024/01/30 11:00:12;;;;;;;3.70;2.43;;;;;;;13.04;nan;100946.22;5017173;28;20205;-88
2024/01/30 11:02:45;;;;;;;2.42;2.00;;;;;;;13.14;nan;100940.44;5016037;28;20198;-87
2024/01/30 11:05:12;;;;;;;3.20;2.05;;;;;;;13.17;nan;100940.25;5013732;28;20336;-89
2024/01/30 11:07:40;;;;;;;2.58;2.38;;;;;;;13.24;nan;100945.13;5018107;28;20170;-88
2024/01/30 11:10:12;;;;;;;4.93;2.60;;;;;;;13.27;nan;100942.38;5021722;28;20221;-90
2024/01/30 11:12:47;;;;;;;2.45;2.25;;;;;;;13.35;nan;100934.03;5015764;28;20893;-88
2024/01/30 11:15:17;;;;;;;5.73;2.80;;;;;;;13.43;nan;100942.41;5015854;28;20193;-88
2024/01/30 11:17:51;;;;;;;3.90;2.20;;;;;;;13.53;nan;100944.53;5016657;28;20206;-88
2024/01/30 11:20:19;;;;;;;4.22;3.15;;;;;;;13.58;nan;100948.63;5018639;28;20206;-89
2024/01/30 11:22:47;;;;;;;3.78;3.00;;;;;;;13.60;nan;100946.75;5018118;28;20215;-88
2024/01/30 11:25:16;;;;;;;13.43;3.53;;;;;;;13.61;nan;100944.94;5015478;28;20207;-88
2024/01/30 11:27:46;;;;;;;5.07;2.67;;;;;;;13.55;nan;100932.94;5016269;28;20851;-88
2024/01/30 11:30:21;;;;;;;2.88;2.22;;;;;;;13.55;nan;100930.31;5016051;28;20528;-87
2024/01/30 11:32:58;;;;;;;2.50;2.03;;;;;;;13.58;nan;100926.66;4996422;28;20280;-88
2024/01/30 11:35:26;;;;;;;3.05;2.03;;;;;;;13.58;nan;100924.84;5016844;28;20194;-87
2024/01/30 11:37:53;;;;;;;2.92;1.92;;;;;;;13.60;nan;100933.53;5020897;28;20315;-87
2024/01/30 11:40:19;;;;;;;2.17;1.95;;;;;;;13.60;nan;100933.53;5015791;28;20210;-86
2024/01/30 11:42:47;;;;;;;2.37;2.10;;;;;;;13.64;nan;100935.09;5016187;28;20198;-88
2024/01/30 11:45:12;;;;;;;3.15;1.88;;;;;;;13.64;nan;100932.47;5016524;28;21254;-88
2024/01/30 11:47:38;;;;;;;3.80;3.50;;;;;;;13.71;nan;100932.94;5015099;28;20190;-89
2024/01/30 11:50:06;;;;;;;3.58;3.22;;;;;;;13.84;nan;100922.56;5014550;28;20210;-87
2024/01/30 11:52:33;;;;;;;3.60;3.30;;;;;;;13.97;nan;100920.09;5013711;28;20198;-87
2024/01/30 11:55:00;;;;;;;5.47;2.90;;;;;;;14.08;nan;100922.97;5016480;28;20193;-87
2024/01/30 11:57:27;;;;;;;3.10;2.80;;;;;;;14.17;nan;100923.28;5018965;28;20270;-87
2024/01/30 11:59:52;;;;;;;3.47;2.83;;;;;;;14.24;nan;100925.59;5023634;28;20218;-87